sensor_id;sensor_type;location;lat;lon;timestamp;temperature;humidity
78028;DHT22;67235;45.638;11.714;2023-05-10T00:26:04;17.60;52.00
78028;DHT22;67235;45.638;11.714;2023-05-10T01:55:51;16.80;64.60
78028;DHT22;67235;45.638;11.714;2023-05-10T01:58:38;16.80;64.40
78028;DHT22;67235;45.638;11.714;2023-05-10T02:01:40;16.80;64.50
78028;DHT22;67235;45.638;11.714;2023-05-10T02:04:34;16.80;64.50
78028;DHT22;67235;45.638;11.714;2023-05-10T02:12:46;16.70;64.70
78028;DHT22;67235;45.638;11.714;2023-05-10T02:15:18;16.70;64.90
78028;DHT22;67235;45.638;11.714;2023-05-10T02:22:58;16.70;64.90
78028;DHT22;67235;45.638;11.714;2023-05-10T02:25:25;16.70;65.20
78028;DHT22;67235;45.638;11.714;2023-05-10T02:27:55;16.70;64.80
78028;DHT22;67235;45.638;11.714;2023-05-10T02:30:22;16.80;65.00
78028;DHT22;67235;45.638;11.714;2023-05-10T02:32:49;16.80;65.10
78028;DHT22;67235;45.638;11.714;2023-05-10T02:35:17;16.70;65.20
78028;DHT22;67235;45.638;11.714;2023-05-10T02:37:44;16.60;65.00
78028;DHT22;67235;45.638;11.714;2023-05-10T02:40:11;16.70;65.00
78028;DHT22;67235;45.638;11.714;2023-05-10T02:42:42;16.70;65.20
78028;DHT22;67235;45.638;11.714;2023-05-10T02:45:13;16.70;64.90
78028;DHT22;67235;45.638;11.714;2023-05-10T02:47:40;16.70;64.60
78028;DHT22;67235;45.638;11.714;2023-05-10T02:50:06;16.80;64.50
78028;DHT22;67235;45.638;11.714;2023-05-10T02:52:46;16.70;64.60
78028;DHT22;67235;45.638;11.714;2023-05-10T02:55:14;16.60;64.30
78028;DHT22;67235;45.638;11.714;2023-05-10T02:57:48;16.50;63.70
78028;DHT22;67235;45.638;11.714;2023-05-10T03:00:16;16.60;63.60
78028;DHT22;67235;45.638;11.714;2023-05-10T03:02:42;16.60;62.70
78028;DHT22;67235;45.638;11.714;2023-05-10T03:05:08;16.70;63.40
78028;DHT22;67235;45.638;11.714;2023-05-10T03:07:34;16.60;63.40
78028;DHT22;67235;45.638;11.714;2023-05-10T03:10:00;16.50;63.70
78028;DHT22;67235;45.638;11.714;2023-05-10T03:17:55;16.30;64.40
78028;DHT22;67235;45.638;11.714;2023-05-10T03:20:26;16.40;64.40
78028;DHT22;67235;45.638;11.714;2023-05-10T03:23:08;16.30;64.40
78028;DHT22;67235;45.638;11.714;2023-05-10T03:25:35;16.30;64.20
78028;DHT22;67235;45.638;11.714;2023-05-10T03:28:01;16.30;64.50
78028;DHT22;67235;45.638;11.714;2023-05-10T03:30:31;16.20;64.20
78028;DHT22;67235;45.638;11.714;2023-05-10T03:33:03;16.30;64.20
78028;DHT22;67235;45.638;11.714;2023-05-10T03:35:29;16.30;64.10
78028;DHT22;67235;45.638;11.714;2023-05-10T03:37:55;16.30;63.90
78028;DHT22;67235;45.638;11.714;2023-05-10T03:40:21;16.40;64.30
78028;DHT22;67235;45.638;11.714;2023-05-10T03:42:51;16.20;64.00
78028;DHT22;67235;45.638;11.714;2023-05-10T03:45:18;16.30;64.40
78028;DHT22;67235;45.638;11.714;2023-05-10T03:47:44;16.20;64.20
78028;DHT22;67235;45.638;11.714;2023-05-10T03:50:14;16.20;64.30
78028;DHT22;67235;45.638;11.714;2023-05-10T03:52:40;16.10;64.50
78028;DHT22;67235;45.638;11.714;2023-05-10T03:55:06;16.20;64.30
78028;DHT22;67235;45.638;11.714;2023-05-10T03:57:33;16.20;64.60
78028;DHT22;67235;45.638;11.714;2023-05-10T03:59:59;16.00;64.70
78028;DHT22;67235;45.638;11.714;2023-05-10T04:02:26;15.90;64.90
78028;DHT22;67235;45.638;11.714;2023-05-10T04:04:51;16.00;64.90
78028;DHT22;67235;45.638;11.714;2023-05-10T04:07:17;15.90;65.00
78028;DHT22;67235;45.638;11.714;2023-05-10T04:09:43;15.90;65.00
78028;DHT22;67235;45.638;11.714;2023-05-10T04:12:09;15.90;65.40
78028;DHT22;67235;45.638;11.714;2023-05-10T04:14:35;16.00;65.30
78028;DHT22;67235;45.638;11.714;2023-05-10T04:17:01;15.90;65.20
78028;DHT22;67235;45.638;11.714;2023-05-10T04:19:30;16.00;65.30
78028;DHT22;67235;45.638;11.714;2023-05-10T04:21:57;15.80;65.20
78028;DHT22;67235;45.638;11.714;2023-05-10T04:24:23;15.80;65.30
78028;DHT22;67235;45.638;11.714;2023-05-10T04:26:49;15.80;65.60
78028;DHT22;67235;45.638;11.714;2023-05-10T04:29:15;15.80;65.40
78028;DHT22;67235;45.638;11.714;2023-05-10T04:31:41;15.90;65.90
78028;DHT22;67235;45.638;11.714;2023-05-10T04:34:07;15.90;65.60
78028;DHT22;67235;45.638;11.714;2023-05-10T04:36:33;15.80;66.30
78028;DHT22;67235;45.638;11.714;2023-05-10T04:39:02;15.70;65.90
78028;DHT22;67235;45.638;11.714;2023-05-10T04:41:28;15.70;65.70
78028;DHT22;67235;45.638;11.714;2023-05-10T04:43:55;15.60;66.00
78028;DHT22;67235;45.638;11.714;2023-05-10T04:46:20;15.70;66.20
78028;DHT22;67235;45.638;11.714;2023-05-10T04:48:47;15.50;66.00
78028;DHT22;67235;45.638;11.714;2023-05-10T04:51:13;15.60;66.50
78028;DHT22;67235;45.638;11.714;2023-05-10T04:53:39;15.60;66.20
78028;DHT22;67235;45.638;11.714;2023-05-10T04:56:05;15.70;66.60
78028;DHT22;67235;45.638;11.714;2023-05-10T04:58:31;15.60;66.70
78028;DHT22;67235;45.638;11.714;2023-05-10T05:01:03;15.60;66.60
78028;DHT22;67235;45.638;11.714;2023-05-10T05:03:30;15.60;66.80
78028;DHT22;67235;45.638;11.714;2023-05-10T05:05:55;15.50;66.70
78028;DHT22;67235;45.638;11.714;2023-05-10T05:08:21;15.50;66.90
78028;DHT22;67235;45.638;11.714;2023-05-10T05:10:49;15.40;68.20
78028;DHT22;67235;45.638;11.714;2023-05-10T05:13:17;15.50;67.20
78028;DHT22;67235;45.638;11.714;2023-05-10T05:15:43;15.50;67.00
78028;DHT22;67235;45.638;11.714;2023-05-10T05:18:09;15.40;67.20
78028;DHT22;67235;45.638;11.714;2023-05-10T05:20:34;15.40;68.70
78028;DHT22;67235;45.638;11.714;2023-05-10T05:23:01;15.30;68.40
78028;DHT22;67235;45.638;11.714;2023-05-10T05:25:26;15.40;68.90
78028;DHT22;67235;45.638;11.714;2023-05-10T05:27:52;15.40;69.00
78028;DHT22;67235;45.638;11.714;2023-05-10T05:30:18;15.40;69.10
78028;DHT22;67235;45.638;11.714;2023-05-10T05:32:44;15.40;69.50
78028;DHT22;67235;45.638;11.714;2023-05-10T05:35:10;15.40;69.60
78028;DHT22;67235;45.638;11.714;2023-05-10T05:37:36;15.40;69.60
78028;DHT22;67235;45.638;11.714;2023-05-10T05:40:03;15.50;68.20
78028;DHT22;67235;45.638;11.714;2023-05-10T05:42:28;15.40;69.60
78028;DHT22;67235;45.638;11.714;2023-05-10T05:44:56;15.30;69.70
78028;DHT22;67235;45.638;11.714;2023-05-10T05:47:22;15.40;69.50
78028;DHT22;67235;45.638;11.714;2023-05-10T05:49:48;15.30;70.10
78028;DHT22;67235;45.638;11.714;2023-05-10T05:52:13;15.40;70.20
78028;DHT22;67235;45.638;11.714;2023-05-10T05:54:39;15.50;69.10
78028;DHT22;67235;45.638;11.714;2023-05-10T05:57:06;15.50;69.00
78028;DHT22;67235;45.638;11.714;2023-05-10T05:59:31;15.60;68.90
78028;DHT22;67235;45.638;11.714;2023-05-10T06:01:57;15.50;68.80
78028;DHT22;67235;45.638;11.714;2023-05-10T06:04:24;15.50;68.70
78028;DHT22;67235;45.638;11.714;2023-05-10T06:06:50;15.50;68.90
78028;DHT22;67235;45.638;11.714;2023-05-10T06:09:15;15.60;69.20
78028;DHT22;67235;45.638;11.714;2023-05-10T06:11:41;15.50;69.60
78028;DHT22;67235;45.638;11.714;2023-05-10T06:14:07;15.50;69.40
78028;DHT22;67235;45.638;11.714;2023-05-10T06:16:34;15.60;69.40
78028;DHT22;67235;45.638;11.714;2023-05-10T06:19:00;15.50;69.50
78028;DHT22;67235;45.638;11.714;2023-05-10T06:21:29;15.50;70.00
78028;DHT22;67235;45.638;11.714;2023-05-10T06:23:55;15.60;69.50
78028;DHT22;67235;45.638;11.714;2023-05-10T06:26:21;15.70;69.20
78028;DHT22;67235;45.638;11.714;2023-05-10T06:28:47;15.60;69.90
78028;DHT22;67235;45.638;11.714;2023-05-10T06:31:13;15.60;69.60
78028;DHT22;67235;45.638;11.714;2023-05-10T06:33:39;15.50;69.80
78028;DHT22;67235;45.638;11.714;2023-05-10T06:36:05;15.50;70.50
78028;DHT22;67235;45.638;11.714;2023-05-10T06:38:30;15.30;71.50
78028;DHT22;67235;45.638;11.714;2023-05-10T06:40:56;15.50;70.30
78028;DHT22;67235;45.638;11.714;2023-05-10T06:43:22;15.60;69.80
78028;DHT22;67235;45.638;11.714;2023-05-10T06:46:12;15.70;70.40
78028;DHT22;67235;45.638;11.714;2023-05-10T06:48:38;15.80;70.00
78028;DHT22;67235;45.638;11.714;2023-05-10T06:51:04;15.70;70.10
78028;DHT22;67235;45.638;11.714;2023-05-10T06:53:30;15.70;69.80
78028;DHT22;67235;45.638;11.714;2023-05-10T06:55:56;15.80;70.10
78028;DHT22;67235;45.638;11.714;2023-05-10T07:23:28;15.50;70.70
78028;DHT22;67235;45.638;11.714;2023-05-10T07:26:19;15.50;70.70
78028;DHT22;67235;45.638;11.714;2023-05-10T07:28:50;15.50;71.30
78028;DHT22;67235;45.638;11.714;2023-05-10T07:31:16;15.60;71.20
78028;DHT22;67235;45.638;11.714;2023-05-10T07:33:48;15.80;70.90
78028;DHT22;67235;45.638;11.714;2023-05-10T07:36:35;15.80;71.10
78028;DHT22;67235;45.638;11.714;2023-05-10T07:39:17;15.70;71.20
78028;DHT22;67235;45.638;11.714;2023-05-10T07:41:54;15.70;70.60
78028;DHT22;67235;45.638;11.714;2023-05-10T07:44:27;15.70;70.80
78028;DHT22;67235;45.638;11.714;2023-05-10T07:47:04;15.70;71.10
78028;DHT22;67235;45.638;11.714;2023-05-10T07:49:38;15.60;70.90
78028;DHT22;67235;45.638;11.714;2023-05-10T07:52:09;15.70;71.10
78028;DHT22;67235;45.638;11.714;2023-05-10T07:54:36;15.70;71.10
78028;DHT22;67235;45.638;11.714;2023-05-10T07:57:08;15.80;70.90
78028;DHT22;67235;45.638;11.714;2023-05-10T07:59:36;15.80;71.10
78028;DHT22;67235;45.638;11.714;2023-05-10T08:02:17;15.70;71.20
78028;DHT22;67235;45.638;11.714;2023-05-10T08:04:53;15.90;71.00
78028;DHT22;67235;45.638;11.714;2023-05-10T08:07:25;15.90;71.10
78028;DHT22;67235;45.638;11.714;2023-05-10T08:10:02;16.00;70.90
78028;DHT22;67235;45.638;11.714;2023-05-10T08:12:42;16.00;70.70
78028;DHT22;67235;45.638;11.714;2023-05-10T08:15:22;15.90;70.80
78028;DHT22;67235;45.638;11.714;2023-05-10T08:17:59;15.90;71.10
78028;DHT22;67235;45.638;11.714;2023-05-10T08:20:30;15.80;70.80
78028;DHT22;67235;45.638;11.714;2023-05-10T08:23:03;15.70;71.00
78028;DHT22;67235;45.638;11.714;2023-05-10T08:25:34;15.70;71.30
78028;DHT22;67235;45.638;11.714;2023-05-10T08:28:10;15.80;71.20
78028;DHT22;67235;45.638;11.714;2023-05-10T08:30:44;15.90;71.10
78028;DHT22;67235;45.638;11.714;2023-05-10T08:33:17;15.90;70.50
78028;DHT22;67235;45.638;11.714;2023-05-10T08:35:50;15.90;70.50
78028;DHT22;67235;45.638;11.714;2023-05-10T08:38:33;15.90;71.40
78028;DHT22;67235;45.638;11.714;2023-05-10T08:41:08;15.90;71.10
78028;DHT22;67235;45.638;11.714;2023-05-10T08:43:54;15.70;70.40
78028;DHT22;67235;45.638;11.714;2023-05-10T08:46:25;15.80;70.90
78028;DHT22;67235;45.638;11.714;2023-05-10T08:48:54;15.80;70.70
78028;DHT22;67235;45.638;11.714;2023-05-10T08:51:27;15.80;70.90
78028;DHT22;67235;45.638;11.714;2023-05-10T08:53:56;15.90;71.30
78028;DHT22;67235;45.638;11.714;2023-05-10T08:56:25;15.90;71.30
78028;DHT22;67235;45.638;11.714;2023-05-10T08:58:54;16.00;71.40
78028;DHT22;67235;45.638;11.714;2023-05-10T09:01:21;15.90;71.20
78028;DHT22;67235;45.638;11.714;2023-05-10T09:03:48;16.00;71.20
78028;DHT22;67235;45.638;11.714;2023-05-10T09:06:16;15.80;70.70
78028;DHT22;67235;45.638;11.714;2023-05-10T09:08:43;15.90;70.80
78028;DHT22;67235;45.638;11.714;2023-05-10T09:11:16;15.90;70.90
78028;DHT22;67235;45.638;11.714;2023-05-10T09:13:48;16.00;70.60
78028;DHT22;67235;45.638;11.714;2023-05-10T09:16:16;15.80;70.70
78028;DHT22;67235;45.638;11.714;2023-05-10T09:18:42;15.90;70.80
78028;DHT22;67235;45.638;11.714;2023-05-10T09:21:10;16.00;71.30
78028;DHT22;67235;45.638;11.714;2023-05-10T09:23:37;16.00;70.60
78028;DHT22;67235;45.638;11.714;2023-05-10T09:26:06;16.10;71.30
78028;DHT22;67235;45.638;11.714;2023-05-10T09:28:49;16.10;71.20
78028;DHT22;67235;45.638;11.714;2023-05-10T09:31:16;16.10;70.90
78028;DHT22;67235;45.638;11.714;2023-05-10T09:33:46;16.10;70.70
78028;DHT22;67235;45.638;11.714;2023-05-10T09:36:13;16.10;71.00
78028;DHT22;67235;45.638;11.714;2023-05-10T09:38:50;16.10;71.30
78028;DHT22;67235;45.638;11.714;2023-05-10T09:41:22;16.00;71.20
78028;DHT22;67235;45.638;11.714;2023-05-10T09:43:49;16.10;71.00
78028;DHT22;67235;45.638;11.714;2023-05-10T09:46:16;16.10;71.70
78028;DHT22;67235;45.638;11.714;2023-05-10T09:48:45;16.10;71.40
78028;DHT22;67235;45.638;11.714;2023-05-10T09:51:20;16.20;71.60
78028;DHT22;67235;45.638;11.714;2023-05-10T09:53:46;16.00;71.50
78028;DHT22;67235;45.638;11.714;2023-05-10T09:56:13;16.00;71.30
78028;DHT22;67235;45.638;11.714;2023-05-10T09:58:41;16.10;72.00
78028;DHT22;67235;45.638;11.714;2023-05-10T10:01:11;16.20;72.10
78028;DHT22;67235;45.638;11.714;2023-05-10T10:03:42;16.10;71.20
78028;DHT22;67235;45.638;11.714;2023-05-10T10:06:09;16.10;71.00
78028;DHT22;67235;45.638;11.714;2023-05-10T10:08:35;15.90;71.00
78028;DHT22;67235;45.638;11.714;2023-05-10T10:11:01;15.70;71.20
78028;DHT22;67235;45.638;11.714;2023-05-10T10:13:27;15.90;71.30
78028;DHT22;67235;45.638;11.714;2023-05-10T10:15:54;15.90;71.40
78028;DHT22;67235;45.638;11.714;2023-05-10T10:18:20;15.80;71.60
78028;DHT22;67235;45.638;11.714;2023-05-10T10:20:54;15.50;71.70
78028;DHT22;67235;45.638;11.714;2023-05-10T10:23:19;15.60;71.60
78028;DHT22;67235;45.638;11.714;2023-05-10T10:25:46;15.70;71.90
78028;DHT22;67235;45.638;11.714;2023-05-10T10:28:32;15.80;71.50
78028;DHT22;67235;45.638;11.714;2023-05-10T10:31:23;15.80;71.70
78028;DHT22;67235;45.638;11.714;2023-05-10T10:33:59;16.00;71.70
78028;DHT22;67235;45.638;11.714;2023-05-10T10:36:25;16.00;72.00
78028;DHT22;67235;45.638;11.714;2023-05-10T10:38:58;16.10;71.80
78028;DHT22;67235;45.638;11.714;2023-05-10T10:41:36;16.00;71.60
78028;DHT22;67235;45.638;11.714;2023-05-10T10:49:49;15.90;72.30
78028;DHT22;67235;45.638;11.714;2023-05-10T10:52:37;16.00;71.70
78028;DHT22;67235;45.638;11.714;2023-05-10T10:55:19;16.00;71.40
78028;DHT22;67235;45.638;11.714;2023-05-10T10:57:52;15.80;71.30
78028;DHT22;67235;45.638;11.714;2023-05-10T11:00:22;15.90;71.60
78028;DHT22;67235;45.638;11.714;2023-05-10T11:02:50;15.80;72.20
78028;DHT22;67235;45.638;11.714;2023-05-10T11:08:12;16.00;71.90
78028;DHT22;67235;45.638;11.714;2023-05-10T11:10:38;16.10;71.90
78028;DHT22;67235;45.638;11.714;2023-05-10T11:13:07;16.10;71.90
78028;DHT22;67235;45.638;11.714;2023-05-10T11:15:37;16.20;72.10
78028;DHT22;67235;45.638;11.714;2023-05-10T11:18:29;16.40;72.40
78028;DHT22;67235;45.638;11.714;2023-05-10T11:21:02;16.40;72.20
78028;DHT22;67235;45.638;11.714;2023-05-10T11:25:56;16.30;72.30
78028;DHT22;67235;45.638;11.714;2023-05-10T11:28:23;16.20;72.60
78028;DHT22;67235;45.638;11.714;2023-05-10T11:30:49;16.40;72.60
78028;DHT22;67235;45.638;11.714;2023-05-10T11:33:16;16.60;72.60
78028;DHT22;67235;45.638;11.714;2023-05-10T11:35:43;16.50;72.40
78028;DHT22;67235;45.638;11.714;2023-05-10T11:38:13;16.50;73.00
78028;DHT22;67235;45.638;11.714;2023-05-10T11:40:40;16.50;72.70
78028;DHT22;67235;45.638;11.714;2023-05-10T11:43:07;16.50;72.50
78028;DHT22;67235;45.638;11.714;2023-05-10T11:45:34;16.70;72.30
78028;DHT22;67235;45.638;11.714;2023-05-10T11:48:01;16.60;71.80
78028;DHT22;67235;45.638;11.714;2023-05-10T11:50:28;16.40;72.40
78028;DHT22;67235;45.638;11.714;2023-05-10T11:52:55;16.50;71.80
78028;DHT22;67235;45.638;11.714;2023-05-10T11:55:22;16.40;71.90
78028;DHT22;67235;45.638;11.714;2023-05-10T11:57:52;16.30;71.70
78028;DHT22;67235;45.638;11.714;2023-05-10T12:00:18;16.10;71.80
78028;DHT22;67235;45.638;11.714;2023-05-10T12:02:43;16.10;72.30
78028;DHT22;67235;45.638;11.714;2023-05-10T12:05:09;16.00;72.60
78028;DHT22;67235;45.638;11.714;2023-05-10T12:07:36;15.90;72.60
78028;DHT22;67235;45.638;11.714;2023-05-10T12:12:43;16.20;73.00
78028;DHT22;67235;45.638;11.714;2023-05-10T12:15:21;16.10;73.00
78028;DHT22;67235;45.638;11.714;2023-05-10T12:17:47;16.10;73.00
78028;DHT22;67235;45.638;11.714;2023-05-10T12:22:43;16.30;72.80
78028;DHT22;67235;45.638;11.714;2023-05-10T12:25:09;16.20;73.20
78028;DHT22;67235;45.638;11.714;2023-05-10T12:27:36;16.20;72.90
78028;DHT22;67235;45.638;11.714;2023-05-10T12:30:02;16.00;72.60
78028;DHT22;67235;45.638;11.714;2023-05-10T12:32:44;15.90;72.70
78028;DHT22;67235;45.638;11.714;2023-05-10T12:35:10;15.90;73.00
78028;DHT22;67235;45.638;11.714;2023-05-10T12:37:36;15.80;73.10
78028;DHT22;67235;45.638;11.714;2023-05-10T12:40:07;15.70;73.40
78028;DHT22;67235;45.638;11.714;2023-05-10T12:42:35;15.80;73.90
78028;DHT22;67235;45.638;11.714;2023-05-10T12:45:02;15.80;73.20
78028;DHT22;67235;45.638;11.714;2023-05-10T12:47:28;15.70;73.50
78028;DHT22;67235;45.638;11.714;2023-05-10T12:49:54;15.70;73.20
78028;DHT22;67235;45.638;11.714;2023-05-10T12:52:20;15.60;73.60
78028;DHT22;67235;45.638;11.714;2023-05-10T12:54:46;15.60;73.30
78028;DHT22;67235;45.638;11.714;2023-05-10T12:57:13;15.70;73.20
78028;DHT22;67235;45.638;11.714;2023-05-10T12:59:38;15.70;73.60
78028;DHT22;67235;45.638;11.714;2023-05-10T13:02:05;15.60;73.60
78028;DHT22;67235;45.638;11.714;2023-05-10T13:04:31;15.70;73.60
78028;DHT22;67235;45.638;11.714;2023-05-10T13:06:57;15.70;73.30
78028;DHT22;67235;45.638;11.714;2023-05-10T13:09:27;15.60;73.40
78028;DHT22;67235;45.638;11.714;2023-05-10T13:11:56;15.70;73.60
78028;DHT22;67235;45.638;11.714;2023-05-10T13:14:22;15.60;73.90
78028;DHT22;67235;45.638;11.714;2023-05-10T13:16:48;15.70;73.60
78028;DHT22;67235;45.638;11.714;2023-05-10T13:19:15;15.70;74.00
78028;DHT22;67235;45.638;11.714;2023-05-10T13:21:42;15.60;74.00
78028;DHT22;67235;45.638;11.714;2023-05-10T13:24:07;15.60;73.70
78028;DHT22;67235;45.638;11.714;2023-05-10T13:26:33;15.70;74.00
78028;DHT22;67235;45.638;11.714;2023-05-10T13:28:59;15.60;74.00
78028;DHT22;67235;45.638;11.714;2023-05-10T13:31:25;15.50;74.30
78028;DHT22;67235;45.638;11.714;2023-05-10T13:33:51;15.60;74.10
78028;DHT22;67235;45.638;11.714;2023-05-10T13:36:17;15.50;73.50
78028;DHT22;67235;45.638;11.714;2023-05-10T13:38:43;15.50;74.20
78028;DHT22;67235;45.638;11.714;2023-05-10T13:41:08;15.60;74.20
78028;DHT22;67235;45.638;11.714;2023-05-10T13:43:34;15.60;74.20
78028;DHT22;67235;45.638;11.714;2023-05-10T13:46:01;15.70;74.00
78028;DHT22;67235;45.638;11.714;2023-05-10T13:48:28;15.70;74.40
78028;DHT22;67235;45.638;11.714;2023-05-10T13:50:54;15.80;74.30
78028;DHT22;67235;45.638;11.714;2023-05-10T13:53:20;15.80;74.30
78028;DHT22;67235;45.638;11.714;2023-05-10T13:55:46;15.80;74.30
78028;DHT22;67235;45.638;11.714;2023-05-10T13:58:12;15.90;74.50
78028;DHT22;67235;45.638;11.714;2023-05-10T14:00:38;16.10;74.00
78028;DHT22;67235;45.638;11.714;2023-05-10T14:03:04;15.90;74.20
78028;DHT22;67235;45.638;11.714;2023-05-10T14:05:31;16.10;73.90
78028;DHT22;67235;45.638;11.714;2023-05-10T14:07:57;16.00;73.70
78028;DHT22;67235;45.638;11.714;2023-05-10T14:10:23;16.00;73.80
78028;DHT22;67235;45.638;11.714;2023-05-10T14:12:50;16.10;73.60
78028;DHT22;67235;45.638;11.714;2023-05-10T14:15:16;16.00;73.90
78028;DHT22;67235;45.638;11.714;2023-05-10T14:17:41;16.10;73.90
78028;DHT22;67235;45.638;11.714;2023-05-10T14:20:07;15.90;74.20
78028;DHT22;67235;45.638;11.714;2023-05-10T14:22:34;15.80;74.50
78028;DHT22;67235;45.638;11.714;2023-05-10T14:25:00;15.80;74.00
78028;DHT22;67235;45.638;11.714;2023-05-10T14:27:26;15.70;74.50
78028;DHT22;67235;45.638;11.714;2023-05-10T14:29:52;15.70;73.90
78028;DHT22;67235;45.638;11.714;2023-05-10T14:32:18;15.70;74.30
78028;DHT22;67235;45.638;11.714;2023-05-10T14:34:44;15.70;74.30
78028;DHT22;67235;45.638;11.714;2023-05-10T14:37:11;15.70;74.50
78028;DHT22;67235;45.638;11.714;2023-05-10T14:39:37;15.60;74.40
78028;DHT22;67235;45.638;11.714;2023-05-10T14:42:03;15.70;74.20
78028;DHT22;67235;45.638;11.714;2023-05-10T14:44:30;15.60;73.90
78028;DHT22;67235;45.638;11.714;2023-05-10T14:46:57;15.50;74.40
78028;DHT22;67235;45.638;11.714;2023-05-10T14:49:23;15.60;74.40
78028;DHT22;67235;45.638;11.714;2023-05-10T14:51:51;15.50;75.10
78028;DHT22;67235;45.638;11.714;2023-05-10T14:54:17;15.40;75.90
78028;DHT22;67235;45.638;11.714;2023-05-10T14:56:43;15.40;76.10
78028;DHT22;67235;45.638;11.714;2023-05-10T14:59:09;15.30;76.60
78028;DHT22;67235;45.638;11.714;2023-05-10T15:01:35;15.30;76.80
78028;DHT22;67235;45.638;11.714;2023-05-10T15:04:03;15.30;76.80
78028;DHT22;67235;45.638;11.714;2023-05-10T15:06:33;15.40;76.60
78028;DHT22;67235;45.638;11.714;2023-05-10T15:09:00;15.40;75.10
78028;DHT22;67235;45.638;11.714;2023-05-10T15:11:26;15.50;75.20
78028;DHT22;67235;45.638;11.714;2023-05-10T15:13:53;15.40;75.20
78028;DHT22;67235;45.638;11.714;2023-05-10T15:16:18;15.50;75.60
78028;DHT22;67235;45.638;11.714;2023-05-10T15:18:45;15.50;75.80
78028;DHT22;67235;45.638;11.714;2023-05-10T15:21:11;15.50;75.50
78028;DHT22;67235;45.638;11.714;2023-05-10T15:23:38;15.60;75.50
78028;DHT22;67235;45.638;11.714;2023-05-10T15:26:03;15.60;75.10
78028;DHT22;67235;45.638;11.714;2023-05-10T15:28:30;15.60;75.30
78028;DHT22;67235;45.638;11.714;2023-05-10T15:30:56;15.60;75.20
78028;DHT22;67235;45.638;11.714;2023-05-10T15:33:22;15.60;75.20
78028;DHT22;67235;45.638;11.714;2023-05-10T15:35:48;15.50;75.00
78028;DHT22;67235;45.638;11.714;2023-05-10T15:38:14;15.40;75.30
78028;DHT22;67235;45.638;11.714;2023-05-10T15:40:40;15.40;75.50
78028;DHT22;67235;45.638;11.714;2023-05-10T15:43:06;15.50;75.30
78028;DHT22;67235;45.638;11.714;2023-05-10T15:45:32;15.50;75.50
78028;DHT22;67235;45.638;11.714;2023-05-10T15:47:58;15.50;75.40
78028;DHT22;67235;45.638;11.714;2023-05-10T15:50:27;15.50;75.50
78028;DHT22;67235;45.638;11.714;2023-05-10T15:52:53;15.60;75.10
78028;DHT22;67235;45.638;11.714;2023-05-10T15:55:19;15.60;75.20
78028;DHT22;67235;45.638;11.714;2023-05-10T15:57:45;15.60;75.50
78028;DHT22;67235;45.638;11.714;2023-05-10T16:00:11;15.60;75.30
78028;DHT22;67235;45.638;11.714;2023-05-10T16:02:40;15.60;75.10
78028;DHT22;67235;45.638;11.714;2023-05-10T16:05:07;15.60;75.20
78028;DHT22;67235;45.638;11.714;2023-05-10T16:07:34;15.50;75.40
78028;DHT22;67235;45.638;11.714;2023-05-10T16:10:00;15.50;75.40
78028;DHT22;67235;45.638;11.714;2023-05-10T16:12:31;15.60;75.10
78028;DHT22;67235;45.638;11.714;2023-05-10T16:14:57;15.60;74.90
78028;DHT22;67235;45.638;11.714;2023-05-10T16:17:23;15.60;75.00
78028;DHT22;67235;45.638;11.714;2023-05-10T16:19:49;15.70;75.00
78028;DHT22;67235;45.638;11.714;2023-05-10T16:22:15;15.60;75.10
78028;DHT22;67235;45.638;11.714;2023-05-10T16:24:41;15.50;75.30
78028;DHT22;67235;45.638;11.714;2023-05-10T16:27:07;15.50;75.10
78028;DHT22;67235;45.638;11.714;2023-05-10T16:29:33;15.50;75.50
78028;DHT22;67235;45.638;11.714;2023-05-10T16:31:59;15.40;75.90
78028;DHT22;67235;45.638;11.714;2023-05-10T16:34:25;15.50;75.70
78028;DHT22;67235;45.638;11.714;2023-05-10T16:36:50;15.50;75.30
78028;DHT22;67235;45.638;11.714;2023-05-10T16:39:16;15.50;75.50
78028;DHT22;67235;45.638;11.714;2023-05-10T16:41:42;15.60;75.60
78028;DHT22;67235;45.638;11.714;2023-05-10T16:44:08;15.50;75.70
78028;DHT22;67235;45.638;11.714;2023-05-10T16:46:34;15.50;75.60
78028;DHT22;67235;45.638;11.714;2023-05-10T16:49:00;15.50;75.70
78028;DHT22;67235;45.638;11.714;2023-05-10T16:51:26;15.50;75.50
78028;DHT22;67235;45.638;11.714;2023-05-10T16:53:52;15.50;75.50
78028;DHT22;67235;45.638;11.714;2023-05-10T16:56:18;15.50;75.60
78028;DHT22;67235;45.638;11.714;2023-05-10T16:58:46;15.40;75.60
78028;DHT22;67235;45.638;11.714;2023-05-10T17:01:15;15.30;77.00
78028;DHT22;67235;45.638;11.714;2023-05-10T17:03:41;15.30;76.90
78028;DHT22;67235;45.638;11.714;2023-05-10T17:06:07;15.40;76.80
78028;DHT22;67235;45.638;11.714;2023-05-10T17:08:33;15.40;75.70
78028;DHT22;67235;45.638;11.714;2023-05-10T17:11:02;15.40;77.10
78028;DHT22;67235;45.638;11.714;2023-05-10T17:13:28;15.40;75.60
78028;DHT22;67235;45.638;11.714;2023-05-10T17:15:55;15.30;76.90
78028;DHT22;67235;45.638;11.714;2023-05-10T17:18:21;15.30;77.00
78028;DHT22;67235;45.638;11.714;2023-05-10T17:20:49;15.20;77.10
78028;DHT22;67235;45.638;11.714;2023-05-10T17:23:28;15.10;77.20
78028;DHT22;67235;45.638;11.714;2023-05-10T17:26:08;15.10;77.00
78028;DHT22;67235;45.638;11.714;2023-05-10T17:28:34;15.00;77.20
78028;DHT22;67235;45.638;11.714;2023-05-10T17:31:00;15.00;77.40
78028;DHT22;67235;45.638;11.714;2023-05-10T17:33:37;15.00;77.30
78028;DHT22;67235;45.638;11.714;2023-05-10T17:36:19;15.00;77.40
78028;DHT22;67235;45.638;11.714;2023-05-10T17:39:07;15.00;77.40
78028;DHT22;67235;45.638;11.714;2023-05-10T17:41:57;15.10;77.30
78028;DHT22;67235;45.638;11.714;2023-05-10T17:44:42;15.10;77.50
78028;DHT22;67235;45.638;11.714;2023-05-10T17:53:08;15.00;77.20
78028;DHT22;67235;45.638;11.714;2023-05-10T17:56:12;15.10;77.10
78028;DHT22;67235;45.638;11.714;2023-05-10T17:58:41;15.00;77.20
78028;DHT22;67235;45.638;11.714;2023-05-10T18:01:08;15.00;77.40
78028;DHT22;67235;45.638;11.714;2023-05-10T18:03:44;15.00;77.20
78028;DHT22;67235;45.638;11.714;2023-05-10T18:06:15;15.00;77.40
78028;DHT22;67235;45.638;11.714;2023-05-10T18:08:41;15.00;77.60
78028;DHT22;67235;45.638;11.714;2023-05-10T18:11:07;14.90;77.70
78028;DHT22;67235;45.638;11.714;2023-05-10T18:13:36;14.90;77.70
78028;DHT22;67235;45.638;11.714;2023-05-10T18:16:04;14.90;77.40
78028;DHT22;67235;45.638;11.714;2023-05-10T18:19:00;14.90;77.50
78028;DHT22;67235;45.638;11.714;2023-05-10T18:21:31;14.90;77.60